sensor_id;sensor_type;location;lat;lon;timestamp;P1;durP1;ratioP1;P2;durP2;ratioP2
52047;SDS011;46904;49.438;8.752;2023-02-03T00:00:31;2.63;;;1.92;;
52047;SDS011;46904;49.438;8.752;2023-02-03T00:02:56;3.78;;;2.20;;
52047;SDS011;46904;49.438;8.752;2023-02-03T00:05:22;3.53;;;2.08;;
52047;SDS011;46904;49.438;8.752;2023-02-03T00:07:48;3.72;;;1.77;;
52047;SDS011;46904;49.438;8.752;2023-02-03T00:10:14;3.25;;;2.20;;
52047;SDS011;46904;49.438;8.752;2023-02-03T00:12:39;6.15;;;1.90;;
52047;SDS011;46904;49.438;8.752;2023-02-03T00:15:05;4.68;;;2.17;;
52047;SDS011;46904;49.438;8.752;2023-02-03T00:17:30;2.72;;;1.83;;
52047;SDS011;46904;49.438;8.752;2023-02-03T00:19:56;6.30;;;2.63;;
52047;SDS011;46904;49.438;8.752;2023-02-03T00:22:21;6.10;;;2.10;;
52047;SDS011;46904;49.438;8.752;2023-02-03T00:24:47;2.45;;;1.55;;
52047;SDS011;46904;49.438;8.752;2023-02-03T00:27:12;6.65;;;2.30;;
52047;SDS011;46904;49.438;8.752;2023-02-03T00:29:38;6.20;;;1.95;;
52047;SDS011;46904;49.438;8.752;2023-02-03T00:32:04;3.85;;;1.73;;
52047;SDS011;46904;49.438;8.752;2023-02-03T00:34:29;3.90;;;1.90;;
52047;SDS011;46904;49.438;8.752;2023-02-03T00:36:55;6.50;;;1.90;;
52047;SDS011;46904;49.438;8.752;2023-02-03T00:39:20;3.42;;;2.05;;
52047;SDS011;46904;49.438;8.752;2023-02-03T00:41:46;4.20;;;2.00;;
52047;SDS011;46904;49.438;8.752;2023-02-03T00:44:12;2.72;;;2.10;;
52047;SDS011;46904;49.438;8.752;2023-02-03T00:46:38;2.72;;;2.00;;
52047;SDS011;46904;49.438;8.752;2023-02-03T00:49:04;4.20;;;2.35;;
52047;SDS011;46904;49.438;8.752;2023-02-03T00:51:29;3.47;;;1.92;;
52047;SDS011;46904;49.438;8.752;2023-02-03T00:53:55;3.38;;;2.38;;
52047;SDS011;46904;49.438;8.752;2023-02-03T00:56:20;4.50;;;1.92;;
52047;SDS011;46904;49.438;8.752;2023-02-03T00:58:46;5.32;;;2.00;;
52047;SDS011;46904;49.438;8.752;2023-02-03T01:01:11;3.15;;;1.88;;
52047;SDS011;46904;49.438;8.752;2023-02-03T01:03:37;4.90;;;2.20;;
52047;SDS011;46904;49.438;8.752;2023-02-03T01:06:13;4.35;;;2.17;;
52047;SDS011;46904;49.438;8.752;2023-02-03T01:08:39;6.47;;;3.00;;
52047;SDS011;46904;49.438;8.752;2023-02-03T01:11:06;4.38;;;2.35;;
52047;SDS011;46904;49.438;8.752;2023-02-03T01:13:31;3.97;;;2.03;;
52047;SDS011;46904;49.438;8.752;2023-02-03T01:15:57;4.85;;;2.05;;
52047;SDS011;46904;49.438;8.752;2023-02-03T01:18:22;2.25;;;1.90;;
52047;SDS011;46904;49.438;8.752;2023-02-03T01:20:48;4.72;;;1.90;;
52047;SDS011;46904;49.438;8.752;2023-02-03T01:23:13;3.20;;;2.03;;
52047;SDS011;46904;49.438;8.752;2023-02-03T01:25:39;4.15;;;2.70;;
52047;SDS011;46904;49.438;8.752;2023-02-03T01:28:05;2.47;;;2.08;;
52047;SDS011;46904;49.438;8.752;2023-02-03T01:30:30;3.63;;;2.17;;
52047;SDS011;46904;49.438;8.752;2023-02-03T01:32:56;5.13;;;1.90;;
52047;SDS011;46904;49.438;8.752;2023-02-03T01:35:21;2.20;;;1.77;;
52047;SDS011;46904;49.438;8.752;2023-02-03T01:37:47;4.95;;;1.88;;
52047;SDS011;46904;49.438;8.752;2023-02-03T01:40:12;3.35;;;1.98;;
52047;SDS011;46904;49.438;8.752;2023-02-03T01:42:38;2.90;;;2.10;;
52047;SDS011;46904;49.438;8.752;2023-02-03T01:45:04;4.05;;;2.30;;
52047;SDS011;46904;49.438;8.752;2023-02-03T01:47:33;3.20;;;2.00;;
52047;SDS011;46904;49.438;8.752;2023-02-03T01:52:32;3.15;;;2.15;;
52047;SDS011;46904;49.438;8.752;2023-02-03T01:54:58;3.28;;;2.30;;
52047;SDS011;46904;49.438;8.752;2023-02-03T01:57:26;6.75;;;2.30;;
52047;SDS011;46904;49.438;8.752;2023-02-03T01:59:54;3.10;;;1.90;;
52047;SDS011;46904;49.438;8.752;2023-02-03T02:02:22;3.28;;;2.00;;
52047;SDS011;46904;49.438;8.752;2023-02-03T02:04:52;2.20;;;1.80;;
52047;SDS011;46904;49.438;8.752;2023-02-03T02:07:19;2.83;;;1.83;;
52047;SDS011;46904;49.438;8.752;2023-02-03T02:09:44;2.15;;;1.85;;
52047;SDS011;46904;49.438;8.752;2023-02-03T02:12:11;5.90;;;2.20;;
52047;SDS011;46904;49.438;8.752;2023-02-03T02:14:36;2.40;;;1.90;;
52047;SDS011;46904;49.438;8.752;2023-02-03T02:17:15;4.88;;;2.00;;
52047;SDS011;46904;49.438;8.752;2023-02-03T02:22:29;2.80;;;1.83;;
52047;SDS011;46904;49.438;8.752;2023-02-03T02:28:05;4.28;;;1.90;;
52047;SDS011;46904;49.438;8.752;2023-02-03T02:40:54;3.42;;;1.95;;
52047;SDS011;46904;49.438;8.752;2023-02-03T02:43:28;2.63;;;1.60;;
52047;SDS011;46904;49.438;8.752;2023-02-03T02:46:01;5.18;;;1.90;;
52047;SDS011;46904;49.438;8.752;2023-02-03T02:50:54;2.60;;;1.92;;
52047;SDS011;46904;49.438;8.752;2023-02-03T02:53:21;1.88;;;1.73;;
52047;SDS011;46904;49.438;8.752;2023-02-03T02:55:48;4.80;;;2.08;;
52047;SDS011;46904;49.438;8.752;2023-02-03T02:58:15;2.10;;;1.90;;
52047;SDS011;46904;49.438;8.752;2023-02-03T03:00:42;2.75;;;1.75;;
52047;SDS011;46904;49.438;8.752;2023-02-03T03:03:21;2.03;;;1.67;;
52047;SDS011;46904;49.438;8.752;2023-02-03T03:05:57;1.95;;;1.77;;
52047;SDS011;46904;49.438;8.752;2023-02-03T03:08:27;2.97;;;1.88;;
52047;SDS011;46904;49.438;8.752;2023-02-03T03:10:55;2.45;;;1.75;;
52047;SDS011;46904;49.438;8.752;2023-02-03T03:13:23;2.10;;;1.77;;
52047;SDS011;46904;49.438;8.752;2023-02-03T03:15:50;3.50;;;1.83;;
52047;SDS011;46904;49.438;8.752;2023-02-03T03:21:02;2.83;;;2.03;;
52047;SDS011;46904;49.438;8.752;2023-02-03T03:23:29;1.83;;;1.20;;
52047;SDS011;46904;49.438;8.752;2023-02-03T03:26:01;1.90;;;1.70;;
52047;SDS011;46904;49.438;8.752;2023-02-03T03:28:34;3.88;;;2.20;;
52047;SDS011;46904;49.438;8.752;2023-02-03T03:31:01;2.10;;;1.55;;
52047;SDS011;46904;49.438;8.752;2023-02-03T03:33:26;1.80;;;1.52;;
52047;SDS011;46904;49.438;8.752;2023-02-03T03:35:57;3.58;;;2.33;;
52047;SDS011;46904;49.438;8.752;2023-02-03T03:38:34;1.65;;;1.55;;
52047;SDS011;46904;49.438;8.752;2023-02-03T03:41:06;2.97;;;1.75;;
52047;SDS011;46904;49.438;8.752;2023-02-03T03:43:33;3.15;;;1.80;;
52047;SDS011;46904;49.438;8.752;2023-02-03T03:46:09;1.58;;;1.45;;
52047;SDS011;46904;49.438;8.752;2023-02-03T03:48:55;1.95;;;1.55;;
52047;SDS011;46904;49.438;8.752;2023-02-03T03:51:45;2.03;;;1.73;;
52047;SDS011;46904;49.438;8.752;2023-02-03T03:54:09;2.75;;;1.65;;
52047;SDS011;46904;49.438;8.752;2023-02-03T03:56:37;10.93;;;2.47;;
52047;SDS011;46904;49.438;8.752;2023-02-03T03:59:03;1.52;;;1.42;;
52047;SDS011;46904;49.438;8.752;2023-02-03T04:01:31;2.00;;;1.88;;
52047;SDS011;46904;49.438;8.752;2023-02-03T04:03:57;2.47;;;1.77;;
52047;SDS011;46904;49.438;8.752;2023-02-03T04:06:24;3.00;;;1.60;;
52047;SDS011;46904;49.438;8.752;2023-02-03T04:08:49;2.45;;;2.00;;
52047;SDS011;46904;49.438;8.752;2023-02-03T04:11:15;4.05;;;1.83;;
52047;SDS011;46904;49.438;8.752;2023-02-03T04:13:40;1.70;;;1.52;;
52047;SDS011;46904;49.438;8.752;2023-02-03T04:16:06;2.17;;;1.70;;
52047;SDS011;46904;49.438;8.752;2023-02-03T04:18:32;1.83;;;1.70;;
52047;SDS011;46904;49.438;8.752;2023-02-03T04:20:57;2.95;;;1.80;;
52047;SDS011;46904;49.438;8.752;2023-02-03T12:51:38;1.00;;;0.90;;
52047;SDS011;46904;49.438;8.752;2023-02-03T13:00:02;2.25;;;1.40;;
52047;SDS011;46904;49.438;8.752;2023-02-03T13:22:55;1.15;;;0.73;;
52047;SDS011;46904;49.438;8.752;2023-02-03T13:45:08;0.70;;;0.70;;
52047;SDS011;46904;49.438;8.752;2023-02-03T13:47:57;0.85;;;0.60;;
52047;SDS011;46904;49.438;8.752;2023-02-03T13:50:38;0.63;;;0.63;;
52047;SDS011;46904;49.438;8.752;2023-02-03T13:53:47;1.33;;;1.13;;
52047;SDS011;46904;49.438;8.752;2023-02-03T14:01:52;1.15;;;0.75;;
52047;SDS011;46904;49.438;8.752;2023-02-03T14:05:31;1.00;;;0.70;;
52047;SDS011;46904;49.438;8.752;2023-02-03T14:14:03;0.60;;;0.60;;
52047;SDS011;46904;49.438;8.752;2023-02-03T14:16:42;0.80;;;0.80;;
52047;SDS011;46904;49.438;8.752;2023-02-03T14:27:48;3.05;;;0.50;;
52047;SDS011;46904;49.438;8.752;2023-02-03T14:30:28;0.50;;;0.50;;
52047;SDS011;46904;49.438;8.752;2023-02-03T14:33:43;1.17;;;1.08;;
52047;SDS011;46904;49.438;8.752;2023-02-03T14:36:49;0.70;;;0.70;;
52047;SDS011;46904;49.438;8.752;2023-02-03T14:39:31;3.22;;;0.80;;
52047;SDS011;46904;49.438;8.752;2023-02-03T14:42:23;1.20;;;1.10;;
52047;SDS011;46904;49.438;8.752;2023-02-03T14:47:53;0.80;;;0.80;;
52047;SDS011;46904;49.438;8.752;2023-02-03T14:50:44;0.65;;;0.65;;
52047;SDS011;46904;49.438;8.752;2023-02-03T14:59:07;0.60;;;0.60;;
52047;SDS011;46904;49.438;8.752;2023-02-03T15:10:02;0.80;;;0.80;;
52047;SDS011;46904;49.438;8.752;2023-02-03T15:12:33;0.77;;;0.77;;
52047;SDS011;46904;49.438;8.752;2023-02-03T15:20:58;0.80;;;0.80;;
52047;SDS011;46904;49.438;8.752;2023-02-03T15:33:04;0.82;;;0.82;;
52047;SDS011;46904;49.438;8.752;2023-02-03T15:36:00;0.80;;;0.80;;
52047;SDS011;46904;49.438;8.752;2023-02-03T15:38:57;0.70;;;0.70;;
52047;SDS011;46904;49.438;8.752;2023-02-03T15:41:29;1.02;;;0.68;;
52047;SDS011;46904;49.438;8.752;2023-02-03T15:44:16;0.90;;;0.80;;
52047;SDS011;46904;49.438;8.752;2023-02-03T15:47:32;0.95;;;0.88;;
52047;SDS011;46904;49.438;8.752;2023-02-03T15:53:21;0.70;;;0.68;;
52047;SDS011;46904;49.438;8.752;2023-02-03T15:55:59;0.68;;;0.68;;
52047;SDS011;46904;49.438;8.752;2023-02-03T16:01:43;0.50;;;0.50;;
52047;SDS011;46904;49.438;8.752;2023-02-03T16:04:33;0.60;;;0.60;;
52047;SDS011;46904;49.438;8.752;2023-02-03T16:13:32;0.85;;;0.85;;
52047;SDS011;46904;49.438;8.752;2023-02-03T16:45:31;1.55;;;0.90;;
52047;SDS011;46904;49.438;8.752;2023-02-03T16:48:23;1.67;;;1.10;;
52047;SDS011;46904;49.438;8.752;2023-02-03T16:54:16;1.17;;;1.08;;
52047;SDS011;46904;49.438;8.752;2023-02-03T16:57:01;1.13;;;1.02;;
52047;SDS011;46904;49.438;8.752;2023-02-03T17:02:48;0.90;;;0.90;;
52047;SDS011;46904;49.438;8.752;2023-02-03T17:08:38;1.60;;;1.02;;
52047;SDS011;46904;49.438;8.752;2023-02-03T17:11:24;0.90;;;0.90;;
52047;SDS011;46904;49.438;8.752;2023-02-03T17:14:00;0.77;;;0.77;;
52047;SDS011;46904;49.438;8.752;2023-02-03T17:16:29;2.58;;;1.83;;
52047;SDS011;46904;49.438;8.752;2023-02-03T17:19:13;1.08;;;1.08;;
52047;SDS011;46904;49.438;8.752;2023-02-03T17:21:47;1.00;;;1.00;;
52047;SDS011;46904;49.438;8.752;2023-02-03T17:24:41;1.00;;;1.00;;
52047;SDS011;46904;49.438;8.752;2023-02-03T17:27:22;1.10;;;1.00;;
52047;SDS011;46904;49.438;8.752;2023-02-03T17:33:04;1.50;;;1.40;;
52047;SDS011;46904;49.438;8.752;2023-02-03T17:39:07;1.13;;;1.00;;
52047;SDS011;46904;49.438;8.752;2023-02-03T17:41:51;1.55;;;1.40;;
52047;SDS011;46904;49.438;8.752;2023-02-03T17:44:20;1.92;;;1.50;;
52047;SDS011;46904;49.438;8.752;2023-02-03T17:46:55;1.20;;;1.10;;
52047;SDS011;46904;49.438;8.752;2023-02-03T17:52:49;1.40;;;1.10;;
52047;SDS011;46904;49.438;8.752;2023-02-03T17:55:52;1.38;;;1.27;;
52047;SDS011;46904;49.438;8.752;2023-02-03T17:59:05;2.38;;;1.10;;
52047;SDS011;46904;49.438;8.752;2023-02-03T18:02:00;2.78;;;1.15;;
52047;SDS011;46904;49.438;8.752;2023-02-03T18:04:34;2.20;;;1.25;;
52047;SDS011;46904;49.438;8.752;2023-02-03T18:07:26;1.25;;;1.00;;
52047;SDS011;46904;49.438;8.752;2023-02-03T18:10:02;1.63;;;1.52;;
52047;SDS011;46904;49.438;8.752;2023-02-03T18:13:05;1.02;;;1.00;;
52047;SDS011;46904;49.438;8.752;2023-02-03T18:15:42;0.90;;;0.90;;
52047;SDS011;46904;49.438;8.752;2023-02-03T18:18:12;1.20;;;1.10;;
52047;SDS011;46904;49.438;8.752;2023-02-03T18:21:01;1.47;;;1.37;;
52047;SDS011;46904;49.438;8.752;2023-02-03T18:23:36;1.02;;;0.90;;
52047;SDS011;46904;49.438;8.752;2023-02-03T18:26:06;1.40;;;1.30;;
52047;SDS011;46904;49.438;8.752;2023-02-03T18:28:32;1.63;;;1.48;;
52047;SDS011;46904;49.438;8.752;2023-02-03T18:31:44;1.20;;;0.90;;
52047;SDS011;46904;49.438;8.752;2023-02-03T18:34:16;1.23;;;1.13;;
52047;SDS011;46904;49.438;8.752;2023-02-03T18:36:50;1.60;;;1.10;;
52047;SDS011;46904;49.438;8.752;2023-02-03T18:42:41;1.23;;;1.13;;
52047;SDS011;46904;49.438;8.752;2023-02-03T18:45:09;1.30;;;1.08;;
52047;SDS011;46904;49.438;8.752;2023-02-03T18:50:46;1.25;;;1.10;;
52047;SDS011;46904;49.438;8.752;2023-02-03T18:53:21;1.20;;;1.10;;
52047;SDS011;46904;49.438;8.752;2023-02-03T18:55:51;1.30;;;1.20;;
52047;SDS011;46904;49.438;8.752;2023-02-03T18:58:36;2.28;;;1.80;;
52047;SDS011;46904;49.438;8.752;2023-02-03T19:01:15;1.60;;;1.50;;
52047;SDS011;46904;49.438;8.752;2023-02-03T19:03:46;1.30;;;1.20;;
52047;SDS011;46904;49.438;8.752;2023-02-03T19:06:15;1.30;;;1.13;;
52047;SDS011;46904;49.438;8.752;2023-02-03T19:08:45;1.60;;;1.50;;
52047;SDS011;46904;49.438;8.752;2023-02-03T19:11:18;1.08;;;1.05;;
52047;SDS011;46904;49.438;8.752;2023-02-03T19:13:45;1.20;;;1.10;;
52047;SDS011;46904;49.438;8.752;2023-02-03T19:16:20;1.55;;;1.45;;
52047;SDS011;46904;49.438;8.752;2023-02-03T19:18:49;1.58;;;1.45;;
52047;SDS011;46904;49.438;8.752;2023-02-03T19:21:18;1.48;;;1.27;;
52047;SDS011;46904;49.438;8.752;2023-02-03T19:23:44;1.33;;;1.20;;
52047;SDS011;46904;49.438;8.752;2023-02-03T19:26:10;1.25;;;1.15;;
52047;SDS011;46904;49.438;8.752;2023-02-03T19:28:54;1.60;;;1.30;;
52047;SDS011;46904;49.438;8.752;2023-02-03T19:34:27;1.60;;;1.50;;
52047;SDS011;46904;49.438;8.752;2023-02-03T19:37:10;3.30;;;1.45;;
52047;SDS011;46904;49.438;8.752;2023-02-03T19:40:08;1.27;;;1.17;;
52047;SDS011;46904;49.438;8.752;2023-02-03T19:42:56;1.70;;;1.60;;
52047;SDS011;46904;49.438;8.752;2023-02-03T19:45:25;1.50;;;1.40;;
52047;SDS011;46904;49.438;8.752;2023-02-03T19:51:12;1.52;;;1.42;;
52047;SDS011;46904;49.438;8.752;2023-02-03T19:53:36;1.38;;;1.20;;
52047;SDS011;46904;49.438;8.752;2023-02-03T19:56:02;1.60;;;1.50;;
52047;SDS011;46904;49.438;8.752;2023-02-03T19:58:30;1.40;;;1.30;;
52047;SDS011;46904;49.438;8.752;2023-02-03T20:01:09;2.20;;;2.00;;
52047;SDS011;46904;49.438;8.752;2023-02-03T20:04:00;1.52;;;1.42;;
52047;SDS011;46904;49.438;8.752;2023-02-03T20:07:15;1.63;;;1.40;;
52047;SDS011;46904;49.438;8.752;2023-02-03T20:09:40;1.30;;;1.20;;
52047;SDS011;46904;49.438;8.752;2023-02-03T20:18:01;3.38;;;1.70;;
52047;SDS011;46904;49.438;8.752;2023-02-03T20:20:48;2.05;;;1.52;;
52047;SDS011;46904;49.438;8.752;2023-02-03T21:39:47;4.07;;;2.92;;
52047;SDS011;46904;49.438;8.752;2023-02-03T21:42:44;3.22;;;2.70;;
52047;SDS011;46904;49.438;8.752;2023-02-03T21:54:36;3.65;;;2.90;;
52047;SDS011;46904;49.438;8.752;2023-02-03T21:57:12;4.57;;;2.60;;
52047;SDS011;46904;49.438;8.752;2023-02-03T22:12:56;5.15;;;3.42;;
52047;SDS011;46904;49.438;8.752;2023-02-03T22:15:59;5.85;;;4.03;;
52047;SDS011;46904;49.438;8.752;2023-02-03T22:21:55;7.53;;;4.32;;
52047;SDS011;46904;49.438;8.752;2023-02-03T22:25:01;4.20;;;3.80;;
52047;SDS011;46904;49.438;8.752;2023-02-03T22:27:53;6.15;;;4.10;;
52047;SDS011;46904;49.438;8.752;2023-02-03T22:33:27;7.15;;;4.18;;
52047;SDS011;46904;49.438;8.752;2023-02-03T22:41:37;5.10;;;3.13;;
52047;SDS011;46904;49.438;8.752;2023-02-03T22:44:10;5.15;;;2.90;;
52047;SDS011;46904;49.438;8.752;2023-02-03T22:47:28;9.57;;;4.15;;
52047;SDS011;46904;49.438;8.752;2023-02-03T22:50:18;3.40;;;2.83;;
52047;SDS011;46904;49.438;8.752;2023-02-03T22:55:37;5.68;;;3.85;;
52047;SDS011;46904;49.438;8.752;2023-02-03T22:58:03;3.33;;;2.70;;
52047;SDS011;46904;49.438;8.752;2023-02-03T23:00:29;4.50;;;3.47;;
52047;SDS011;46904;49.438;8.752;2023-02-03T23:02:58;4.22;;;3.42;;
52047;SDS011;46904;49.438;8.752;2023-02-03T23:05:29;4.47;;;3.40;;
52047;SDS011;46904;49.438;8.752;2023-02-03T23:08:17;4.07;;;3.40;;
52047;SDS011;46904;49.438;8.752;2023-02-03T23:10:55;5.10;;;3.50;;
52047;SDS011;46904;49.438;8.752;2023-02-03T23:13:39;4.03;;;3.00;;
52047;SDS011;46904;49.438;8.752;2023-02-03T23:16:11;4.30;;;3.13;;
52047;SDS011;46904;49.438;8.752;2023-02-03T23:18:40;3.55;;;3.05;;
52047;SDS011;46904;49.438;8.752;2023-02-03T23:21:30;4.85;;;3.28;;
52047;SDS011;46904;49.438;8.752;2023-02-03T23:23:57;4.28;;;3.00;;
52047;SDS011;46904;49.438;8.752;2023-02-03T23:29:50;5.53;;;3.95;;
52047;SDS011;46904;49.438;8.752;2023-02-03T23:32:22;5.47;;;3.45;;
52047;SDS011;46904;49.438;8.752;2023-02-03T23:34:58;4.95;;;3.90;;
52047;SDS011;46904;49.438;8.752;2023-02-03T23:37:27;6.13;;;4.07;;
52047;SDS011;46904;49.438;8.752;2023-02-03T23:40:05;5.47;;;3.60;;
52047;SDS011;46904;49.438;8.752;2023-02-03T23:42:38;4.70;;;3.65;;
52047;SDS011;46904;49.438;8.752;2023-02-03T23:45:16;7.78;;;3.40;;
52047;SDS011;46904;49.438;8.752;2023-02-03T23:47:49;4.23;;;3.30;;
52047;SDS011;46904;49.438;8.752;2023-02-03T23:50:44;4.43;;;3.50;;
